Time;durP1;ratioP1;P1;durP2;ratioP2;P2;SDS_P1;SDS_P2;PMS_P1;PMS_P2;Temp;Humidity;BMP_temperature;BMP_pressure;BME280_temperature;BME280_humidity;BME280_pressure;Samples;Min_cycle;Max_cycle;Signal;HPM_P1;HPM_P2
2024/01/30 00:01:25;;;;;;;17.83;13.13;;;7.40;99.90;;;;;;5027214;28;20052;-64
2024/01/30 00:03:51;;;;;;;17.80;13.00;;;7.40;99.90;;;;;;5026747;28;20517;-64
2024/01/30 00:06:23;;;;;;;16.07;13.57;;;7.40;99.90;;;;;;5009982;28;20038;-64
2024/01/30 00:08:49;;;;;;;16.73;12.27;;;7.50;99.90;;;;;;5028287;28;20332;-63
2024/01/30 00:11:15;;;;;;;21.77;14.07;;;7.60;99.90;;;;;;5027374;28;20061;-63
2024/01/30 00:13:41;;;;;;;18.85;13.20;;;7.60;99.90;;;;;;5009657;28;20036;-63
2024/01/30 00:16:08;;;;;;;18.08;12.80;;;7.60;99.90;;;;;;5027590;28;20406;-64
2024/01/30 00:18:34;;;;;;;18.63;12.35;;;7.60;99.90;;;;;;5027482;28;20083;-64
2024/01/30 00:20:59;;;;;;;19.17;12.50;;;7.60;99.90;;;;;;5027805;28;20065;-64
2024/01/30 00:23:25;;;;;;;17.37;12.30;;;7.70;99.90;;;;;;5009363;28;20037;-63
2024/01/30 00:25:50;;;;;;;21.58;12.77;;;7.70;99.90;;;;;;5025767;28;20501;-64
2024/01/30 00:28:16;;;;;;;17.93;14.23;;;7.70;99.90;;;;;;5027575;28;20040;-64
2024/01/30 00:30:42;;;;;;;17.80;12.30;;;7.70;99.90;;;;;;5027565;28;20079;-64
2024/01/30 00:33:09;;;;;;;15.03;11.60;;;7.70;99.90;;;;;;5041738;28;20279;-64
2024/01/30 00:35:34;;;;;;;16.17;13.02;;;7.70;99.90;;;;;;5027381;28;20152;-64
2024/01/30 00:38:00;;;;;;;19.17;13.37;;;7.70;99.90;;;;;;5009542;28;20188;-64
2024/01/30 00:40:26;;;;;;;18.17;13.17;;;7.70;99.90;;;;;;5027682;28;20040;-63
2024/01/30 00:42:52;;;;;;;17.77;13.50;;;7.70;99.90;;;;;;5026964;28;20037;-65
2024/01/30 00:45:17;;;;;;;19.95;13.82;;;7.70;99.90;;;;;;5027365;28;20045;-64
2024/01/30 00:47:43;;;;;;;21.25;13.27;;;7.70;99.90;;;;;;5026601;28;20402;-65
2024/01/30 00:50:09;;;;;;;19.20;13.48;;;7.70;99.90;;;;;;5027139;28;20025;-65
2024/01/30 00:52:35;;;;;;;18.73;12.10;;;7.70;99.90;;;;;;5027884;28;20029;-64
2024/01/30 00:55:02;;;;;;;16.80;13.32;;;7.70;99.90;;;;;;5030495;28;20453;-63
2024/01/30 00:57:28;;;;;;;18.58;13.98;;;7.70;99.90;;;;;;5028251;28;20513;-64
2024/01/30 00:59:53;;;;;;;15.23;12.60;;;7.70;99.90;;;;;;5031073;28;20034;-65
2024/01/30 01:02:19;;;;;;;18.40;12.33;;;7.70;99.90;;;;;;5036016;28;20278;-64
2024/01/30 01:04:45;;;;;;;13.77;11.60;;;7.60;99.90;;;;;;5031566;28;20505;-66
2024/01/30 01:07:11;;;;;;;16.13;12.93;;;7.70;99.90;;;;;;5032981;28;20513;-63
2024/01/30 01:09:37;;;;;;;15.55;13.30;;;7.60;99.90;;;;;;5030712;28;20433;-64
2024/01/30 01:12:03;;;;;;;19.38;11.88;;;7.60;99.90;;;;;;5031431;28;20088;-65
2024/01/30 01:14:29;;;;;;;25.15;13.10;;;7.60;99.90;;;;;;5029868;28;20073;-63
2024/01/30 01:16:55;;;;;;;17.25;12.57;;;7.60;99.90;;;;;;5010512;28;20065;-64
2024/01/30 01:19:21;;;;;;;16.90;13.27;;;7.60;99.90;;;;;;5030776;28;20029;-65
2024/01/30 01:21:47;;;;;;;18.08;12.00;;;7.60;99.90;;;;;;5029749;28;20288;-63
2024/01/30 01:24:13;;;;;;;15.77;12.90;;;7.60;99.90;;;;;;5031187;28;20112;-64
2024/01/30 01:26:39;;;;;;;15.90;12.10;;;7.60;99.90;;;;;;5030472;28;20506;-64
2024/01/30 01:29:09;;;;;;;15.73;12.02;;;7.60;99.90;;;;;;5029521;28;20044;-64
2024/01/30 01:31:39;;;;;;;17.30;12.00;;;7.70;99.90;;;;;;5030608;28;20132;-64
2024/01/30 01:34:06;;;;;;;18.20;12.55;;;7.70;99.90;;;;;;5029331;28;20040;-65
2024/01/30 01:36:31;;;;;;;16.70;11.77;;;7.70;99.90;;;;;;5029985;28;20037;-65
2024/01/30 01:38:57;;;;;;;16.33;12.43;;;7.70;99.90;;;;;;5029943;28;20040;-65
2024/01/30 01:41:22;;;;;;;16.33;12.00;;;7.70;99.90;;;;;;5031067;28;20037;-64
2024/01/30 01:43:48;;;;;;;15.33;11.83;;;7.70;99.90;;;;;;5029287;28;20117;-64
2024/01/30 01:46:14;;;;;;;21.93;12.57;;;7.70;99.90;;;;;;5029744;28;20056;-66
2024/01/30 01:48:40;;;;;;;17.17;12.88;;;7.70;99.90;;;;;;5012826;28;20045;-64
2024/01/30 01:51:06;;;;;;;13.70;12.05;;;7.70;99.90;;;;;;5030281;28;20068;-64
2024/01/30 01:53:32;;;;;;;20.50;13.23;;;7.70;99.90;;;;;;5009779;28;20045;-64
2024/01/30 01:55:58;;;;;;;18.98;13.02;;;7.70;99.90;;;;;;5029770;28;20590;-64
2024/01/30 01:58:28;;;;;;;17.93;12.70;;;7.70;99.90;;;;;;5030193;28;20041;-65
2024/01/30 02:00:56;;;;;;;16.52;12.23;;;7.70;99.90;;;;;;5028621;28;20037;-63
2024/01/30 02:03:21;;;;;;;15.98;12.02;;;7.70;99.90;;;;;;5029251;28;20033;-64
2024/01/30 02:05:47;;;;;;;17.80;13.27;;;7.70;99.90;;;;;;5011592;28;20047;-65
2024/01/30 02:08:12;;;;;;;16.73;12.60;;;7.70;99.90;;;;;;5031856;28;20296;-65
2024/01/30 02:10:38;;;;;;;15.03;12.23;;;7.70;99.90;;;;;;5029079;28;20060;-62
2024/01/30 02:13:04;;;;;;;16.30;13.40;;;7.70;99.90;;;;;;5029759;28;20037;-64
2024/01/30 02:15:30;;;;;;;17.58;11.85;;;7.70;99.90;;;;;;5013900;28;20039;-63
2024/01/30 02:17:56;;;;;;;16.73;12.32;;;7.70;99.90;;;;;;5029880;28;20080;-64
2024/01/30 02:20:24;;;;;;;15.75;12.13;;;7.70;99.90;;;;;;5034003;28;20049;-65
2024/01/30 02:22:54;;;;;;;21.83;13.02;;;7.70;99.90;;;;;;5015548;28;20167;-65
2024/01/30 02:25:19;;;;;;;15.75;12.25;;;7.70;99.90;;;;;;5029415;28;20038;-64
2024/01/30 02:27:45;;;;;;;17.02;12.18;;;7.70;99.90;;;;;;5028547;28;20536;-64
2024/01/30 02:30:11;;;;;;;16.30;10.77;;;7.80;99.90;;;;;;5028843;28;20033;-64
2024/01/30 02:32:37;;;;;;;21.02;11.75;;;7.80;99.90;;;;;;5030117;28;20037;-64
2024/01/30 02:35:03;;;;;;;16.47;12.73;;;7.70;99.90;;;;;;5028650;28;20486;-65
2024/01/30 02:37:28;;;;;;;17.23;11.88;;;7.80;99.90;;;;;;5028781;28;20041;-62
2024/01/30 02:39:54;;;;;;;15.17;11.63;;;7.80;99.90;;;;;;5027989;28;20041;-65
2024/01/30 02:42:19;;;;;;;16.53;12.37;;;7.80;99.90;;;;;;5027711;28;20124;-64
2024/01/30 02:44:45;;;;;;;18.13;10.90;;;7.80;99.90;;;;;;5028494;28;20534;-63
2024/01/30 02:47:11;;;;;;;16.20;11.67;;;7.80;99.90;;;;;;5029627;28;20034;-64
2024/01/30 02:49:36;;;;;;;15.37;12.13;;;7.80;99.90;;;;;;5029689;28;20037;-64
2024/01/30 02:52:02;;;;;;;12.90;11.43;;;7.80;99.90;;;;;;5029155;28;20040;-63
2024/01/30 02:54:30;;;;;;;20.42;12.88;;;7.80;99.90;;;;;;5029058;28;20078;-63
2024/01/30 02:56:56;;;;;;;17.08;12.18;;;7.80;99.90;;;;;;5028099;28;20072;-64
2024/01/30 02:59:21;;;;;;;19.43;11.83;;;7.80;99.90;;;;;;5032435;28;20741;-63
2024/01/30 03:01:47;;;;;;;15.57;11.67;;;7.80;99.90;;;;;;5028383;28;20083;-64
2024/01/30 03:04:13;;;;;;;17.33;12.18;;;7.80;99.90;;;;;;5010884;28;20032;-63
2024/01/30 03:06:39;;;;;;;17.05;10.65;;;7.80;99.90;;;;;;5028462;28;20025;-64
2024/01/30 03:09:04;;;;;;;18.23;11.70;;;7.80;99.90;;;;;;5028433;28;20040;-63
2024/01/30 03:11:30;;;;;;;17.00;11.40;;;7.80;99.90;;;;;;5027856;28;20034;-63
2024/01/30 03:13:56;;;;;;;13.70;11.40;;;7.80;99.90;;;;;;5011242;28;20091;-64
2024/01/30 03:16:21;;;;;;;17.27;12.90;;;7.80;99.90;;;;;;5009759;28;20448;-64
2024/01/30 03:18:48;;;;;;;17.77;11.57;;;7.80;99.90;;;;;;5015486;28;20033;-62
2024/01/30 03:21:14;;;;;;;17.00;11.45;;;7.90;99.90;;;;;;5030407;28;20425;-64
2024/01/30 03:23:39;;;;;;;16.50;12.00;;;7.90;99.90;;;;;;5027626;28;20029;-64
2024/01/30 03:26:06;;;;;;;15.20;11.77;;;7.90;99.90;;;;;;5027169;28;20112;-63
2024/01/30 03:28:32;;;;;;;17.52;12.45;;;7.90;99.90;;;;;;5028365;28;20041;-64
2024/01/30 03:30:57;;;;;;;16.30;11.80;;;7.90;99.90;;;;;;5029321;28;20494;-63
2024/01/30 03:33:23;;;;;;;12.67;11.37;;;7.90;99.90;;;;;;5028115;28;20130;-65
2024/01/30 03:35:48;;;;;;;20.27;11.63;;;7.90;99.90;;;;;;5027911;28;20037;-63
2024/01/30 03:38:14;;;;;;;17.83;12.77;;;8.00;99.90;;;;;;5028016;28;20048;-64
2024/01/30 03:40:40;;;;;;;14.60;12.17;;;8.00;99.90;;;;;;5028602;28;20033;-63
2024/01/30 03:43:05;;;;;;;18.03;12.33;;;8.00;99.90;;;;;;5040005;28;20132;-64
2024/01/30 03:45:31;;;;;;;21.05;12.45;;;7.90;99.90;;;;;;5025595;28;20033;-65
2024/01/30 03:47:57;;;;;;;15.27;12.67;;;7.90;99.90;;;;;;5029955;28;20509;-64
2024/01/30 03:50:22;;;;;;;16.50;13.70;;;7.90;99.90;;;;;;5028059;28;21034;-63
2024/01/30 03:52:48;;;;;;;17.85;12.45;;;7.90;99.90;;;;;;5027512;28;20069;-63
2024/01/30 03:55:14;;;;;;;16.97;12.93;;;7.90;99.90;;;;;;5028130;28;20468;-63
2024/01/30 03:57:39;;;;;;;15.52;12.30;;;7.90;99.90;;;;;;5028194;28;20160;-64
2024/01/30 04:00:05;;;;;;;20.37;13.30;;;7.90;99.90;;;;;;5027816;28;20033;-64
2024/01/30 04:02:31;;;;;;;19.65;12.98;;;7.90;99.90;;;;;;5028014;28;20046;-63
2024/01/30 04:04:57;;;;;;;18.23;12.63;;;7.90;99.90;;;;;;5027457;28;20048;-64
2024/01/30 04:07:22;;;;;;;19.27;12.77;;;7.90;99.90;;;;;;5027463;28;20037;-64
2024/01/30 04:09:48;;;;;;;26.83;13.60;;;7.90;99.90;;;;;;5027870;28;20569;-64
2024/01/30 04:12:13;;;;;;;19.97;12.70;;;7.90;99.90;;;;;;5027804;28;20057;-63
2024/01/30 04:14:39;;;;;;;15.03;13.23;;;7.90;99.90;;;;;;5028994;28;20268;-64
2024/01/30 04:17:05;;;;;;;20.38;13.52;;;7.90;99.90;;;;;;5027433;28;20131;-64
2024/01/30 04:19:30;;;;;;;18.83;12.60;;;7.80;99.90;;;;;;5027946;28;20048;-64
2024/01/30 04:21:56;;;;;;;18.83;12.93;;;7.90;99.90;;;;;;5028684;28;20359;-64
2024/01/30 04:24:22;;;;;;;22.80;13.20;;;7.90;99.90;;;;;;5010159;28;20041;-65
2024/01/30 04:26:47;;;;;;;18.70;13.53;;;7.90;99.90;;;;;;5028027;28;20038;-63
2024/01/30 04:29:13;;;;;;;17.07;13.67;;;7.90;99.90;;;;;;5031129;28;20043;-64
2024/01/30 04:31:38;;;;;;;19.50;14.00;;;7.90;99.90;;;;;;5031424;28;20116;-62
2024/01/30 04:34:04;;;;;;;16.27;11.63;;;7.90;99.90;;;;;;5031898;28;20037;-65
2024/01/30 04:36:30;;;;;;;16.10;13.53;;;8.00;99.90;;;;;;5013216;28;20448;-64
2024/01/30 04:38:55;;;;;;;18.70;13.20;;;8.00;99.90;;;;;;5031634;28;20045;-63
2024/01/30 04:41:21;;;;;;;18.00;12.80;;;8.00;99.90;;;;;;5042119;28;20466;-64
2024/01/30 04:43:46;;;;;;;18.53;12.80;;;8.00;99.90;;;;;;5025973;28;20045;-65
2024/01/30 04:46:12;;;;;;;18.10;12.23;;;8.10;99.90;;;;;;5030807;28;20036;-63
2024/01/30 04:48:38;;;;;;;20.23;12.83;;;8.10;99.90;;;;;;5032883;28;20045;-63
2024/01/30 04:51:04;;;;;;;15.48;12.48;;;8.20;99.90;;;;;;5030460;28;20041;-63
2024/01/30 04:53:31;;;;;;;19.52;12.85;;;8.20;99.90;;;;;;5012859;28;20039;-63
2024/01/30 04:55:56;;;;;;;18.90;13.30;;;8.10;99.90;;;;;;5031949;28;20064;-64
2024/01/30 04:58:22;;;;;;;17.85;13.38;;;8.20;99.90;;;;;;5035978;28;20037;-63
2024/01/30 05:00:51;;;;;;;16.17;12.60;;;8.20;99.90;;;;;;5033865;28;20593;-63
2024/01/30 05:03:18;;;;;;;18.92;13.07;;;8.20;99.90;;;;;;5030428;28;20041;-63
2024/01/30 05:05:44;;;;;;;18.30;13.45;;;8.20;99.90;;;;;;5029925;28;20043;-64
2024/01/30 05:08:10;;;;;;;17.27;12.00;;;8.20;99.90;;;;;;5013745;28;20037;-64
2024/01/30 05:10:35;;;;;;;19.17;13.43;;;8.20;99.90;;;;;;5030450;28;20048;-64
2024/01/30 05:13:01;;;;;;;18.80;13.10;;;8.20;99.90;;;;;;5012910;28;20092;-64
2024/01/30 05:15:26;;;;;;;16.07;12.67;;;8.20;99.90;;;;;;5030231;28;20034;-62
2024/01/30 05:17:52;;;;;;;21.27;13.33;;;8.20;99.90;;;;;;5012493;28;20052;-64
2024/01/30 05:20:18;;;;;;;18.07;13.63;;;8.20;99.90;;;;;;5012864;28;20042;-62
2024/01/30 05:22:44;;;;;;;18.90;13.27;;;8.30;99.90;;;;;;5028800;28;20476;-63
2024/01/30 05:25:12;;;;;;;18.52;13.38;;;8.30;99.90;;;;;;5030767;28;20048;-65
2024/01/30 05:27:37;;;;;;;16.25;13.20;;;8.30;99.90;;;;;;5033293;28;20095;-65
2024/01/30 05:30:03;;;;;;;20.60;14.73;;;8.30;99.90;;;;;;5035856;28;20679;-64
2024/01/30 05:32:29;;;;;;;19.20;13.50;;;8.30;99.90;;;;;;5033616;28;20046;-65
2024/01/30 05:34:55;;;;;;;22.10;13.37;;;8.20;99.90;;;;;;4996763;28;20048;-65
2024/01/30 05:37:20;;;;;;;17.92;13.25;;;8.30;99.90;;;;;;5029381;28;20037;-63
2024/01/30 05:39:46;;;;;;;21.20;14.00;;;8.30;99.90;;;;;;5029024;28;20096;-64
2024/01/30 05:42:12;;;;;;;14.97;12.30;;;8.30;99.90;;;;;;5029549;28;20033;-64
2024/01/30 05:44:37;;;;;;;18.50;12.20;;;8.30;99.90;;;;;;5029616;28;20025;-65
2024/01/30 05:47:03;;;;;;;23.17;14.03;;;8.30;99.90;;;;;;5029446;28;20045;-65
2024/01/30 05:49:29;;;;;;;17.65;12.98;;;8.30;99.90;;;;;;5029827;28;20370;-64
2024/01/30 05:51:54;;;;;;;15.23;13.33;;;8.30;99.90;;;;;;5029473;28;20045;-61
2024/01/30 05:54:20;;;;;;;16.23;12.83;;;8.30;99.90;;;;;;5030237;28;20034;-64
2024/01/30 05:56:45;;;;;;;15.80;11.90;;;8.30;99.90;;;;;;5029788;28;20033;-65
2024/01/30 05:59:11;;;;;;;16.97;13.17;;;8.30;99.90;;;;;;5029681;28;20037;-65
2024/01/30 06:01:36;;;;;;;17.87;12.93;;;8.30;99.90;;;;;;5029518;28;20037;-63
2024/01/30 06:04:02;;;;;;;15.83;12.70;;;8.30;99.90;;;;;;5030126;28;20429;-64
2024/01/30 06:06:28;;;;;;;17.90;13.13;;;8.30;99.90;;;;;;5032461;28;20363;-64
2024/01/30 06:08:56;;;;;;;14.10;12.07;;;8.30;99.90;;;;;;5034662;28;20116;-65
2024/01/30 06:11:21;;;;;;;16.83;13.05;;;8.30;99.90;;;;;;5029725;28;20044;-64
2024/01/30 06:13:47;;;;;;;16.47;12.90;;;8.30;99.90;;;;;;5030107;28;20033;-63
2024/01/30 06:16:12;;;;;;;20.10;12.93;;;8.30;99.90;;;;;;5029442;28;20036;-64
2024/01/30 06:18:39;;;;;;;16.10;12.95;;;8.30;99.90;;;;;;5029923;28;20057;-64
2024/01/30 06:21:05;;;;;;;16.47;12.07;;;8.30;99.90;;;;;;5041655;28;20502;-64
2024/01/30 06:23:31;;;;;;;19.90;15.10;;;8.30;99.90;;;;;;5028838;28;20052;-64
2024/01/30 06:25:56;;;;;;;16.97;12.63;;;8.30;99.90;;;;;;5042219;28;20038;-63
2024/01/30 06:28:22;;;;;;;18.47;14.37;;;8.30;99.90;;;;;;5011771;28;20048;-62
2024/01/30 06:30:48;;;;;;;14.70;12.33;;;8.30;99.90;;;;;;5029956;28;20033;-64
2024/01/30 06:33:13;;;;;;;17.27;13.27;;;8.30;99.90;;;;;;5025838;28;20041;-62
2024/01/30 06:35:40;;;;;;;21.08;14.07;;;8.30;99.90;;;;;;5026456;28;20033;-64
2024/01/30 06:38:05;;;;;;;;;;;8.30;99.90;;;;;;5028844;28;20125;-63
2024/01/30 06:40:31;;;;;;;21.90;13.48;;;8.30;99.90;;;;;;5029197;28;19999;-64
2024/01/30 06:42:57;;;;;;;18.47;13.10;;;8.30;99.90;;;;;;5028423;28;20385;-62
2024/01/30 06:45:22;;;;;;;15.67;12.20;;;8.30;99.90;;;;;;5010591;28;20429;-63
2024/01/30 06:47:48;;;;;;;17.00;12.27;;;8.30;99.90;;;;;;5028607;28;20033;-64
2024/01/30 06:50:14;;;;;;;16.97;12.03;;;8.30;99.90;;;;;;5027412;28;20049;-63
2024/01/30 06:52:39;;;;;;;18.50;13.20;;;8.30;99.90;;;;;;5026592;28;20386;-64
2024/01/30 06:55:05;;;;;;;16.47;12.27;;;8.30;99.90;;;;;;5026872;28;20044;-63
2024/01/30 06:57:31;;;;;;;16.83;12.55;;;8.30;99.90;;;;;;5028470;28;20052;-63
2024/01/30 06:59:56;;;;;;;14.53;11.90;;;8.40;99.90;;;;;;5028204;28;20037;-65
2024/01/30 07:02:22;;;;;;;23.77;12.00;;;8.40;99.90;;;;;;5028563;28;20112;-64
2024/01/30 07:04:48;;;;;;;16.17;12.80;;;8.30;99.90;;;;;;5026767;28;20036;-63
2024/01/30 07:07:14;;;;;;;19.02;13.00;;;8.40;99.90;;;;;;5010218;28;20556;-64
2024/01/30 07:09:40;;;;;;;17.90;12.82;;;8.40;99.90;;;;;;5010213;28;20045;-63
2024/01/30 07:12:06;;;;;;;18.13;12.57;;;8.30;99.90;;;;;;5009482;28;20038;-63
2024/01/30 07:14:33;;;;;;;15.35;12.70;;;8.30;99.90;;;;;;5008043;28;20044;-64
2024/01/30 07:16:58;;;;;;;20.55;12.60;;;8.40;99.90;;;;;;5009030;28;20061;-64
2024/01/30 07:19:24;;;;;;;16.67;13.43;;;8.40;99.90;;;;;;5027209;28;20029;-65
2024/01/30 07:21:49;;;;;;;19.77;12.37;;;8.40;99.90;;;;;;5008663;28;20421;-63
2024/01/30 07:24:15;;;;;;;17.30;12.97;;;8.40;99.90;;;;;;5008207;28;20029;-64
2024/01/30 07:26:41;;;;;;;13.73;11.40;;;8.40;99.90;;;;;;5026507;28;20421;-63
2024/01/30 07:29:06;;;;;;;18.20;11.68;;;8.50;99.90;;;;;;5007387;28;20048;-65
2024/01/30 07:31:32;;;;;;;19.27;12.73;;;8.50;99.90;;;;;;5027446;28;20121;-64
2024/01/30 07:33:57;;;;;;;20.03;12.50;;;8.40;99.90;;;;;;5007556;28;20288;-63
2024/01/30 07:36:23;;;;;;;17.33;12.30;;;8.50;99.90;;;;;;5022613;28;20083;-63
2024/01/30 07:38:49;;;;;;;16.70;12.63;;;8.50;99.90;;;;;;5027569;28;20048;-63
2024/01/30 07:41:14;;;;;;;16.57;11.90;;;8.50;99.90;;;;;;5027656;28;20485;-64
2024/01/30 07:43:40;;;;;;;14.90;12.17;;;8.50;99.90;;;;;;5009511;28;20052;-64
2024/01/30 07:46:06;;;;;;;15.83;11.67;;;8.50;99.90;;;;;;5041777;28;20505;-64
2024/01/30 07:48:34;;;;;;;13.75;11.32;;;8.50;99.90;;;;;;5025362;28;20072;-64
2024/01/30 07:51:00;;;;;;;15.23;11.30;;;8.50;99.90;;;;;;5025503;28;20044;-64
2024/01/30 07:53:25;;;;;;;17.02;12.25;;;8.50;99.90;;;;;;5023744;28;20042;-64
2024/01/30 07:55:51;;;;;;;19.13;12.30;;;8.60;99.90;;;;;;5020335;28;20116;-63
2024/01/30 07:58:17;;;;;;;16.08;11.23;;;8.60;99.90;;;;;;5026719;28;20514;-64
2024/01/30 08:00:43;;;;;;;15.80;11.07;;;8.50;99.90;;;;;;5026207;28;20093;-64
2024/01/30 08:03:08;;;;;;;15.27;11.20;;;8.60;99.90;;;;;;5027298;28;20502;-63
2024/01/30 08:05:34;;;;;;;11.83;10.57;;;8.60;99.90;;;;;;5030277;28;20280;-64
2024/01/30 08:07:59;;;;;;;15.33;10.67;;;8.60;99.90;;;;;;5030959;28;20509;-65
2024/01/30 08:10:25;;;;;;;14.33;11.87;;;8.70;99.90;;;;;;5032317;28;20037;-64
2024/01/30 08:12:50;;;;;;;17.80;11.80;;;8.70;99.90;;;;;;5032657;28;20045;-64
2024/01/30 08:15:16;;;;;;;18.63;11.87;;;8.70;99.90;;;;;;5030433;28;20461;-63
2024/01/30 08:17:42;;;;;;;14.33;10.60;;;8.70;99.90;;;;;;5012911;28;20049;-63
2024/01/30 08:20:10;;;;;;;12.73;10.50;;;8.70;99.90;;;;;;5011288;28;20044;-63
2024/01/30 08:22:37;;;;;;;15.57;11.75;;;8.70;99.90;;;;;;5029065;28;20664;-65
2024/01/30 08:25:03;;;;;;;14.95;11.80;;;8.70;99.90;;;;;;5025386;28;21256;-64
2024/01/30 08:27:29;;;;;;;13.15;10.82;;;8.70;99.90;;;;;;5025152;28;20051;-65
2024/01/30 08:29:54;;;;;;;12.43;10.07;;;8.80;99.90;;;;;;5024720;28;20032;-64
2024/01/30 08:32:20;;;;;;;15.03;11.50;;;8.80;99.90;;;;;;5024582;28;20405;-65
2024/01/30 08:34:46;;;;;;;13.17;10.07;;;8.80;99.90;;;;;;5025851;28;20660;-65
2024/01/30 08:37:11;;;;;;;13.47;10.20;;;8.80;99.90;;;;;;5025101;28;20045;-65
2024/01/30 08:39:37;;;;;;;15.90;10.87;;;8.90;99.90;;;;;;5025412;28;20839;-64
2024/01/30 08:42:03;;;;;;;15.45;10.02;;;9.00;99.90;;;;;;5028034;28;20373;-64
2024/01/30 08:44:29;;;;;;;13.85;10.82;;;9.00;99.90;;;;;;5024670;28;20143;-63
2024/01/30 08:46:54;;;;;;;14.00;10.73;;;9.00;99.90;;;;;;5005687;28;20045;-64
2024/01/30 08:49:20;;;;;;;13.63;10.60;;;9.00;99.90;;;;;;5007652;28;20064;-64
2024/01/30 08:51:46;;;;;;;12.52;10.57;;;9.00;99.90;;;;;;5024636;28;20065;-67
2024/01/30 08:54:11;;;;;;;12.48;9.95;;;9.10;99.90;;;;;;5024900;28;20521;-65
2024/01/30 08:56:37;;;;;;;11.07;9.87;;;9.10;99.90;;;;;;5022337;28;20104;-66
2024/01/30 08:59:02;;;;;;;13.57;10.67;;;9.10;99.90;;;;;;5024367;28;20083;-68
2024/01/30 09:01:28;;;;;;;14.87;9.57;;;9.20;99.90;;;;;;5025199;28;20754;-63
2024/01/30 09:03:54;;;;;;;20.73;9.93;;;9.20;99.90;;;;;;5024679;28;20049;-65
2024/01/30 09:06:19;;;;;;;13.67;9.67;;;9.30;99.90;;;;;;5025729;28;20411;-64
2024/01/30 09:08:45;;;;;;;11.17;9.90;;;9.30;99.90;;;;;;5026686;28;20048;-65
2024/01/30 09:11:15;;;;;;;18.45;11.15;;;9.30;99.90;;;;;;5006263;28;20064;-65
2024/01/30 09:13:41;;;;;;;16.13;10.93;;;9.30;99.90;;;;;;5025300;28;20405;-65
2024/01/30 09:16:07;;;;;;;12.77;10.15;;;9.40;99.90;;;;;;5022497;28;20112;-64
2024/01/30 09:18:33;;;;;;;12.23;9.45;;;9.40;99.90;;;;;;5020560;28;20041;-65
2024/01/30 09:20:59;;;;;;;13.93;9.55;;;9.40;99.90;;;;;;5023294;28;20056;-63
2024/01/30 09:23:26;;;;;;;14.88;8.75;;;9.40;99.90;;;;;;5022407;28;20116;-62
2024/01/30 09:25:52;;;;;;;14.60;9.80;;;9.40;99.90;;;;;;5022343;28;20599;-64
2024/01/30 09:28:18;;;;;;;13.87;10.43;;;9.40;99.90;;;;;;5021590;28;20041;-64
2024/01/30 09:30:43;;;;;;;11.30;10.13;;;9.40;99.90;;;;;;5022763;28;20108;-64
2024/01/30 09:33:09;;;;;;;12.77;10.35;;;9.40;99.90;;;;;;5023545;28;20038;-65
2024/01/30 09:35:36;;;;;;;15.43;10.40;;;9.40;99.90;;;;;;5024427;28;20029;-65
2024/01/30 09:38:02;;;;;;;17.20;9.70;;;9.40;99.90;;;;;;5024207;28;20331;-64
2024/01/30 09:40:28;;;;;;;13.93;10.07;;;9.50;99.90;;;;;;5024931;28;20085;-63
2024/01/30 09:42:54;;;;;;;16.90;9.95;;;9.50;99.90;;;;;;5005291;28;20077;-64
2024/01/30 09:45:24;;;;;;;12.73;9.95;;;9.50;99.90;;;;;;5023133;28;20083;-63
2024/01/30 09:47:49;;;;;;;11.50;9.93;;;9.60;99.90;;;;;;5023553;28;20037;-63
2024/01/30 09:50:16;;;;;;;15.87;9.57;;;9.60;99.90;;;;;;4990063;28;20062;-63
2024/01/30 09:52:43;;;;;;;14.68;10.15;;;9.60;99.90;;;;;;5024736;28;20069;-63
2024/01/30 09:55:10;;;;;;;13.05;9.90;;;9.70;99.90;;;;;;5023227;28;20159;-63
2024/01/30 09:57:36;;;;;;;13.25;9.52;;;9.70;99.90;;;;;;5006020;28;20072;-64
2024/01/30 10:00:02;;;;;;;;;;;9.60;99.90;;;;;;5023935;28;20084;-64
2024/01/30 10:02:28;;;;;;;12.85;9.40;;;9.70;99.90;;;;;;5009816;28;19917;-62
2024/01/30 10:04:54;;;;;;;12.57;9.83;;;9.70;99.90;;;;;;5022590;28;20132;-64
2024/01/30 10:07:19;;;;;;;14.73;10.97;;;9.60;99.90;;;;;;5005962;28;20295;-64
2024/01/30 10:09:46;;;;;;;17.00;10.68;;;9.70;99.90;;;;;;5024226;28;20565;-64
2024/01/30 10:12:12;;;;;;;15.43;9.32;;;9.70;99.90;;;;;;5021919;28;20026;-62
2024/01/30 10:14:39;;;;;;;17.08;10.95;;;9.70;99.90;;;;;;5023814;28;20045;-64
2024/01/30 10:17:05;;;;;;;13.30;9.82;;;9.80;99.90;;;;;;5003089;28;20048;-62
2024/01/30 10:19:31;;;;;;;;;;;9.80;99.90;;;;;;5003330;28;20038;-65
2024/01/30 10:21:57;;;;;;;17.23;10.02;;;9.80;99.90;;;;;;5024356;28;19979;-64
2024/01/30 10:24:26;;;;;;;19.08;10.95;;;9.90;99.90;;;;;;5022372;28;20041;-64
2024/01/30 10:26:53;;;;;;;18.20;10.57;;;9.90;99.90;;;;;;5022032;28;20068;-64
2024/01/30 10:29:18;;;;;;;11.35;9.70;;;9.90;99.90;;;;;;5023647;28;20037;-64
2024/01/30 10:31:44;;;;;;;14.80;10.77;;;9.90;99.90;;;;;;5024021;28;20297;-64
2024/01/30 10:34:10;;;;;;;16.05;9.55;;;9.90;99.90;;;;;;5023434;28;20149;-64
2024/01/30 10:36:42;;;;;;;16.88;10.48;;;10.00;99.90;;;;;;4994429;28;20408;-64
2024/01/30 10:39:08;;;;;;;15.27;10.60;;;10.00;99.90;;;;;;5005043;28;20060;-65
2024/01/30 10:41:43;;;;;;;12.20;9.55;;;10.10;99.90;;;;;;5023399;28;20044;-65
2024/01/30 10:44:10;;;;;;;13.60;10.80;;;10.10;99.90;;;;;;5023095;28;20045;-65
2024/01/30 10:46:38;;;;;;;18.48;10.23;;;10.10;99.90;;;;;;5037691;28;20041;-65
2024/01/30 10:49:04;;;;;;;14.63;10.48;;;10.20;99.90;;;;;;5039777;28;20041;-65
2024/01/30 10:51:32;;;;;;;14.70;9.40;;;10.20;99.90;;;;;;5007242;28;20378;-64
2024/01/30 10:53:57;;;;;;;16.80;10.05;;;10.20;99.90;;;;;;5039540;28;20051;-63
2024/01/30 10:56:24;;;;;;;14.57;10.65;;;10.30;99.90;;;;;;5025186;28;20037;-65
2024/01/30 10:58:57;;;;;;;19.15;10.55;;;10.30;99.90;;;;;;5007493;28;20050;-65
2024/01/30 11:01:24;;;;;;;13.95;9.02;;;10.30;99.90;;;;;;5027706;28;20096;-64
2024/01/30 11:03:51;;;;;;;16.42;10.52;;;10.40;99.90;;;;;;5009036;28;20087;-64
2024/01/30 11:06:19;;;;;;;20.88;10.93;;;10.40;99.90;;;;;;5028653;28;20164;-64
2024/01/30 11:08:46;;;;;;;16.20;10.20;;;10.40;99.90;;;;;;5011224;28;20075;-64
2024/01/30 11:11:11;;;;;;;13.20;10.05;;;10.40;99.90;;;;;;5027122;28;20417;-63
2024/01/30 11:13:37;;;;;;;20.58;11.40;;;10.40;99.90;;;;;;5025176;28;20044;-64
2024/01/30 11:16:04;;;;;;;15.00;9.43;;;10.40;99.90;;;;;;5025090;28;20121;-64
2024/01/30 11:18:31;;;;;;;14.27;10.40;;;10.40;99.90;;;;;;5025585;28;20280;-65
2024/01/30 11:20:57;;;;;;;;;;;10.40;99.90;;;;;;5027125;28;20041;-63
2024/01/30 11:23:23;;;;;;;18.95;10.43;;;10.50;99.90;;;;;;5023778;28;19928;-64
2024/01/30 11:25:51;;;;;;;14.90;10.38;;;10.50;99.90;;;;;;5021289;28;20402;-63
2024/01/30 11:28:18;;;;;;;16.70;10.30;;;10.50;99.90;;;;;;5023872;28;20049;-65
2024/01/30 11:30:44;;;;;;;;;;;10.50;99.90;;;;;;5024689;28;20064;-63
2024/01/30 11:33:13;;;;;;;14.02;9.90;;;10.50;99.90;;;;;;5024473;28;20401;-64
2024/01/30 11:35:44;;;;;;;16.98;10.95;;;10.60;99.90;;;;;;5023407;28;20137;-64
2024/01/30 11:38:11;;;;;;;16.23;10.73;;;10.60;99.90;;;;;;5022563;28;20068;-64
2024/01/30 11:40:38;;;;;;;20.48;11.65;;;10.60;99.90;;;;;;5024700;28;20094;-65
2024/01/30 11:43:06;;;;;;;16.80;11.00;;;10.70;99.90;;;;;;5022771;28;20053;-64
2024/01/30 11:45:32;;;;;;;16.95;10.40;;;10.70;99.90;;;;;;5021020;28;20640;-64
2024/01/30 11:48:03;;;;;;;14.30;10.85;;;10.70;99.90;;;;;;5021919;28;20555;-65
2024/01/30 11:50:33;;;;;;;23.17;11.77;;;10.70;99.90;;;;;;5024484;28;20080;-65
2024/01/30 11:53:00;;;;;;;18.75;12.07;;;10.70;99.90;;;;;;5023402;28;20037;-66
2024/01/30 11:55:25;;;;;;;17.33;10.85;;;10.70;99.90;;;;;;5022545;28;20040;-65
2024/01/30 11:57:54;;;;;;;24.65;12.30;;;10.70;99.90;;;;;;5023183;28;20449;-65
2024/01/30 12:00:20;;;;;;;19.58;12.07;;;10.70;99.90;;;;;;5023650;28;20474;-66
2024/01/30 12:02:55;;;;;;;19.25;10.60;;;10.70;99.90;;;;;;5019944;28;20063;-64
2024/01/30 12:05:25;;;;;;;19.15;11.77;;;10.70;99.90;;;;;;5022981;28;20588;-64
2024/01/30 12:07:50;;;;;;;14.98;11.18;;;10.80;99.90;;;;;;5022015;28;20041;-63
2024/01/30 12:10:17;;;;;;;15.82;12.18;;;10.80;99.90;;;;;;5022376;28;20033;-63
2024/01/30 12:12:47;;;;;;;23.00;11.02;;;10.80;99.90;;;;;;5022447;28;20525;-65
2024/01/30 12:15:14;;;;;;;14.50;10.23;;;10.80;99.90;;;;;;5024240;28;20041;-66
2024/01/30 12:17:40;;;;;;;13.82;10.57;;;10.80;99.90;;;;;;5004235;28;20045;-66
2024/01/30 12:20:19;;;;;;;13.98;10.52;;;10.90;99.90;;;;;;5022653;28;20041;-64
2024/01/30 12:22:48;;;;;;;26.60;10.52;;;10.90;99.90;;;;;;5006886;28;20049;-65
2024/01/30 12:25:15;;;;;;;9.63;8.68;;;11.00;99.90;;;;;;5022516;28;20077;-65
2024/01/30 12:27:46;;;;;;;13.77;8.98;;;11.10;99.90;;;;;;5021913;28;20048;-65
2024/01/30 12:30:13;;;;;;;18.42;9.40;;;11.60;99.90;;;;;;5024229;28;20044;-66
2024/01/30 12:32:40;;;;;;;14.00;9.15;;;11.90;99.90;;;;;;5023842;28;20143;-64